createdAt,value
2023-01-03T00:04:31.554Z,43.68
2023-01-03T00:09:33.674Z,43.22
2023-01-03T00:14:38.313Z,41.90
2023-01-03T00:19:44.458Z,41.67
2023-01-03T00:24:48.100Z,40.60
2023-01-03T00:29:49.881Z,40.35
2023-01-03T00:34:51.912Z,39.66
2023-01-03T00:39:54.007Z,40.23
2023-01-03T00:44:55.831Z,39.53
2023-01-03T00:49:57.698Z,38.85
2023-01-03T00:54:59.571Z,38.54
2023-01-03T01:00:01.487Z,37.61
2023-01-03T01:05:03.863Z,37.79
2023-01-03T01:10:06.216Z,37.45
2023-01-03T01:15:08.668Z,38.33
2023-01-03T01:20:10.666Z,38.25
2023-01-03T01:25:12.522Z,38.85
2023-01-03T01:30:14.434Z,40.53
2023-01-03T01:35:16.569Z,41.50
2023-01-03T01:40:19.466Z,39.20
2023-01-03T01:45:21.364Z,38.98
2023-01-03T01:50:35.191Z,38.79
2023-01-03T01:55:42.090Z,39.44
2023-01-03T02:00:45.160Z,38.20
2023-01-03T02:05:51.179Z,37.08
2023-01-03T02:11:14.866Z,37.66
2023-01-03T02:16:26.415Z,38.25
2023-01-03T02:22:00.653Z,36.46
2023-01-03T02:27:39.710Z,35.90
2023-01-03T02:32:50.903Z,37.89
2023-01-03T02:38:06.758Z,35.94
2023-01-03T02:43:47.262Z,34.53
2023-01-03T02:48:56.767Z,35.63
2023-01-03T02:54:00.814Z,35.12
2023-01-03T02:59:10.048Z,34.63
2023-01-03T03:04:15.573Z,33.76
2023-01-03T03:09:17.628Z,32.25
2023-01-03T03:14:30.598Z,32.64
2023-01-03T03:19:53.878Z,32.02
2023-01-03T03:24:57.601Z,31.68
2023-01-03T03:30:00.844Z,30.88
2023-01-03T03:35:06.448Z,30.59
2023-01-03T03:40:28.643Z,31.21
2023-01-03T03:46:00.390Z,30.54
2023-01-03T03:51:11.186Z,31.16
2023-01-03T03:56:16.657Z,33.63
2023-01-03T04:01:22.626Z,40.70
2023-01-03T04:06:31.021Z,42.94
2023-01-03T04:11:32.838Z,44.22
2023-01-03T04:16:34.807Z,45.75
2023-01-03T04:21:36.856Z,46.13
2023-01-03T04:26:38.787Z,45.51
2023-01-03T04:31:41.637Z,46.43
2023-01-03T04:36:43.590Z,48.03
2023-01-03T04:41:45.805Z,43.85
2023-01-03T04:46:52.764Z,45.88
2023-01-03T04:51:55.147Z,47.49
2023-01-03T04:56:57.033Z,46.89
2023-01-03T05:01:59.138Z,50.76
2023-01-03T05:07:01.159Z,48.60
2023-01-03T05:12:03.144Z,50.36
2023-01-03T05:17:05.066Z,49.55
2023-01-03T05:22:25.682Z,52.91
2023-01-03T05:27:27.936Z,52.51
2023-01-03T05:32:30.133Z,50.51
2023-01-03T05:37:32.009Z,51.23
2023-01-03T05:42:34.266Z,54.73
2023-01-03T05:47:36.134Z,54.49
2023-01-03T05:52:37.995Z,53.24
2023-01-03T05:57:39.961Z,52.83
2023-01-03T06:02:41.937Z,53.82
2023-01-03T06:07:43.845Z,54.71
2023-01-03T06:12:45.735Z,57.33
2023-01-03T06:17:58.867Z,52.91
2023-01-03T06:23:00.816Z,51.10
2023-01-03T06:28:02.759Z,51.06
2023-01-03T06:33:04.615Z,49.73
2023-01-03T06:38:06.533Z,52.65
2023-01-03T06:43:08.737Z,49.89
2023-01-03T06:48:29.646Z,47.30
2023-01-03T06:53:34.767Z,49.43
2023-01-03T06:58:37.119Z,45.83
2023-01-03T07:03:39.204Z,43.45
2023-01-03T07:08:47.702Z,40.95
2023-01-03T07:14:00.277Z,39.93
2023-01-03T07:19:03.893Z,36.80
2023-01-03T07:24:07.410Z,36.76
2023-01-03T07:29:10.688Z,35.56
2023-01-03T07:34:12.579Z,34.90
2023-01-03T07:39:14.542Z,34.66
2023-01-03T07:44:16.895Z,33.74
2023-01-03T07:49:18.951Z,32.78
2023-01-03T07:54:20.848Z,31.83
2023-01-03T07:59:22.706Z,33.06
2023-01-03T08:04:24.632Z,33.16
2023-01-03T08:09:45.995Z,31.81
2023-01-03T08:14:48.033Z,31.13
2023-01-03T08:19:49.930Z,30.76
2023-01-03T08:24:51.820Z,31.05
2023-01-03T08:29:53.818Z,29.87
2023-01-03T08:34:56.008Z,28.32
2023-01-03T08:40:03.450Z,31.01
2023-01-03T08:45:11.082Z,28.80
2023-01-03T08:50:13.332Z,30.19
2023-01-03T08:55:15.322Z,28.65
2023-01-03T09:00:17.401Z,26.10
2023-01-03T09:05:19.366Z,25.59
2023-01-03T09:10:22.002Z,26.88
2023-01-03T09:15:23.968Z,28.31
2023-01-03T09:20:25.865Z,26.35
2023-01-03T09:25:31.795Z,28.22
2023-01-03T09:30:38.673Z,18.85
2023-01-03T09:35:41.041Z,21.25
2023-01-03T09:40:45.731Z,19.62
2023-01-03T09:45:55.199Z,24.56
2023-01-03T09:51:18.336Z,26.05
2023-01-03T09:56:37.729Z,24.22
2023-01-03T10:03:00.902Z,20.78
2023-01-03T10:08:05.652Z,20.54
2023-01-03T10:13:26.108Z,18.01
2023-01-03T10:18:48.401Z,14.03
2023-01-03T10:23:51.208Z,7.58
2023-01-03T10:28:53.655Z,9.34
2023-01-03T10:33:55.958Z,7.50
2023-01-03T10:39:09.845Z,5.35
2023-01-03T10:44:37.933Z,7.73
2023-01-03T10:49:45.057Z,9.50
2023-01-03T10:54:51.621Z,9.07
2023-01-03T10:59:53.549Z,8.76
2023-01-03T11:05:16.451Z,5.01
2023-01-03T11:10:19.270Z,4.19
2023-01-03T11:15:39.125Z,6.16
2023-01-03T11:21:07.207Z,7.34
2023-01-03T11:26:09.082Z,5.14
2023-01-03T11:31:53.047Z,6.02
2023-01-03T11:37:00.952Z,1.30
2023-01-03T11:42:27.174Z,-3.47
2023-01-03T11:48:15.764Z,3.06
2023-01-03T11:53:31.877Z,1.77
2023-01-03T11:59:07.152Z,1.91
2023-01-03T12:04:27.849Z,4.83
2023-01-03T12:09:46.582Z,4.67
2023-01-03T12:14:54.170Z,6.10
2023-01-03T12:20:11.050Z,6.15
2023-01-03T12:25:27.360Z,6.83
2023-01-03T12:30:58.862Z,6.00
2023-01-03T12:36:25.599Z,5.70
2023-01-03T12:41:33.775Z,5.30
2023-01-03T12:46:41.270Z,6.91
2023-01-03T12:51:43.271Z,5.67
2023-01-03T12:56:52.644Z,7.33
2023-01-03T13:02:00.997Z,9.56
2023-01-03T13:07:15.388Z,9.91
2023-01-03T13:12:21.382Z,11.29
2023-01-03T13:17:26.637Z,11.37
2023-01-03T13:22:28.466Z,10.10
2023-01-03T13:27:37.956Z,13.52
2023-01-03T13:32:50.229Z,14.02
2023-01-03T13:38:11.017Z,15.00
2023-01-03T13:43:40.158Z,13.68
2023-01-03T13:48:53.917Z,16.24
2023-01-03T13:54:03.826Z,14.68
2023-01-03T13:59:15.299Z,15.80
2023-01-03T14:04:26.500Z,16.32
2023-01-03T14:09:40.409Z,19.04
2023-01-03T14:14:42.771Z,19.67
2023-01-03T14:19:51.895Z,21.56
2023-01-03T14:24:59.106Z,20.84
2023-01-03T14:30:01.614Z,23.81
2023-01-03T14:35:04.575Z,25.23
2023-01-03T14:40:18.757Z,27.42
2023-01-03T14:45:21.798Z,27.19
2023-01-03T14:50:28.419Z,23.58
2023-01-03T14:55:32.814Z,26.23
2023-01-03T15:00:36.299Z,26.36
2023-01-03T15:05:40.712Z,25.52
2023-01-03T15:10:49.030Z,27.93
2023-01-03T15:16:28.760Z,27.94
2023-01-03T15:21:30.872Z,27.86
2023-01-03T15:26:43.859Z,29.13
2023-01-03T15:31:55.073Z,27.37
2023-01-03T15:37:01.960Z,27.50
2023-01-03T15:47:44.936Z,29.02
2023-01-03T15:52:48.009Z,26.65
2023-01-03T15:57:52.459Z,26.32
2023-01-03T16:02:54.590Z,26.57
2023-01-03T16:07:56.567Z,26.98
2023-01-03T16:12:58.837Z,26.74
2023-01-03T16:18:00.722Z,25.66
2023-01-03T16:23:02.699Z,25.99
2023-01-03T16:28:11.868Z,25.39
2023-01-03T16:33:19.813Z,25.89
2023-01-03T16:38:25.657Z,26.89
2023-01-03T16:43:27.674Z,26.68
2023-01-03T16:48:40.741Z,27.01
2023-01-03T16:53:42.863Z,26.69
2023-01-03T16:58:45.112Z,27.27
2023-01-03T17:03:47.448Z,26.91
2023-01-03T17:08:50.097Z,28.32
2023-01-03T17:13:56.904Z,30.36
2023-01-03T17:18:58.916Z,28.91
2023-01-03T17:24:04.462Z,28.55
2023-01-03T17:29:07.677Z,25.94
2023-01-03T17:34:31.658Z,25.59
2023-01-03T17:39:33.404Z,24.50
2023-01-03T17:44:35.459Z,24.94
2023-01-03T17:49:37.360Z,24.87
2023-01-03T17:54:41.076Z,23.42
2023-01-03T17:59:44.457Z,23.86
2023-01-03T18:05:14.822Z,25.14
2023-01-03T18:10:26.183Z,24.53
2023-01-03T18:15:28.436Z,23.72
2023-01-03T18:20:31.098Z,22.63
2023-01-03T18:25:33.000Z,22.34
2023-01-03T18:30:34.814Z,22.08
2023-01-03T18:35:38.249Z,18.73
2023-01-03T18:40:40.877Z,17.57
2023-01-03T18:45:43.101Z,16.76
2023-01-03T18:50:50.590Z,15.30
2023-01-03T18:55:57.750Z,14.36
2023-01-03T19:01:00.471Z,12.89
2023-01-03T19:06:03.017Z,12.52
2023-01-03T19:11:08.175Z,11.96
2023-01-03T19:16:12.160Z,10.21
2023-01-03T19:21:15.302Z,9.11
2023-01-03T19:26:27.785Z,8.69
2023-01-03T19:31:40.579Z,7.37
2023-01-03T19:36:42.802Z,6.89
2023-01-03T19:42:08.785Z,6.13
2023-01-03T19:47:16.530Z,6.16
2023-01-03T19:52:18.560Z,5.61
2023-01-03T19:57:26.735Z,5.30
2023-01-03T20:02:40.805Z,5.02
2023-01-03T20:07:43.903Z,4.85
2023-01-03T20:12:47.077Z,4.51
2023-01-03T20:17:49.360Z,5.21
2023-01-03T20:23:11.869Z,3.91
2023-01-03T20:28:29.366Z,3.72
2023-01-03T20:33:31.498Z,4.43
2023-01-03T20:38:34.319Z,4.26
2023-01-03T20:43:36.217Z,4.46
2023-01-03T20:48:38.115Z,6.15
2023-01-03T20:53:43.076Z,6.06
2023-01-03T20:58:45.764Z,5.52
2023-01-03T21:03:47.747Z,4.66
2023-01-03T21:08:56.998Z,4.74
2023-01-03T21:14:00.448Z,4.18
2023-01-03T21:19:14.451Z,4.51
2023-01-03T21:24:17.494Z,4.97
2023-01-03T21:29:19.529Z,5.33
2023-01-03T21:34:21.876Z,5.59
2023-01-03T21:39:23.793Z,5.56
2023-01-03T21:44:25.805Z,6.84
2023-01-03T21:49:27.708Z,7.26
2023-01-03T21:54:29.558Z,6.86
2023-01-03T21:59:31.588Z,6.01
2023-01-03T22:04:34.182Z,5.44
2023-01-03T22:09:54.720Z,5.11
2023-01-03T22:14:56.642Z,4.62
2023-01-03T22:19:58.701Z,5.32
2023-01-03T22:25:01.038Z,6.02
2023-01-03T22:30:08.202Z,6.57
2023-01-03T22:35:12.576Z,6.95
2023-01-03T22:40:17.026Z,7.44
2023-01-03T22:45:19.167Z,8.38
2023-01-03T22:50:21.256Z,9.34
2023-01-03T22:55:26.750Z,10.21
2023-01-03T23:00:33.804Z,11.12
2023-01-03T23:05:35.928Z,12.12
2023-01-03T23:10:38.048Z,13.89
2023-01-03T23:15:39.898Z,14.62
2023-01-03T23:20:48.749Z,16.51
2023-01-03T23:25:50.673Z,17.44
2023-01-03T23:30:52.678Z,18.86
2023-01-03T23:35:54.554Z,18.81
2023-01-03T23:40:56.552Z,20.15
2023-01-03T23:45:58.784Z,21.74
2023-01-03T23:51:08.638Z,21.44
2023-01-03T23:56:15.703Z,22.02
